sensor_id;sensor_type;location;lat;lon;timestamp;P1;durP1;ratioP1;P2;durP2;ratioP2
49153;SDS011;49455;52.252;9.124;2024-03-29T00:03:29;6.30;;;1.40;;
49153;SDS011;49455;52.252;9.124;2024-03-29T00:08:29;5.90;;;1.30;;
49153;SDS011;49455;52.252;9.124;2024-03-29T00:13:30;3.03;;;0.98;;
49153;SDS011;49455;52.252;9.124;2024-03-29T00:18:30;4.70;;;1.48;;
49153;SDS011;49455;52.252;9.124;2024-03-29T00:23:31;3.75;;;1.20;;
49153;SDS011;49455;52.252;9.124;2024-03-29T00:28:31;6.28;;;1.30;;
49153;SDS011;49455;52.252;9.124;2024-03-29T00:33:31;4.55;;;1.27;;
49153;SDS011;49455;52.252;9.124;2024-03-29T00:38:32;4.35;;;1.30;;
49153;SDS011;49455;52.252;9.124;2024-03-29T00:43:32;3.63;;;1.00;;
49153;SDS011;49455;52.252;9.124;2024-03-29T00:48:33;5.22;;;1.13;;
49153;SDS011;49455;52.252;9.124;2024-03-29T00:53:33;3.80;;;0.82;;
49153;SDS011;49455;52.252;9.124;2024-03-29T00:58:34;2.55;;;1.08;;
49153;SDS011;49455;52.252;9.124;2024-03-29T01:03:34;7.82;;;1.10;;
49153;SDS011;49455;52.252;9.124;2024-03-29T01:08:34;4.97;;;0.90;;
49153;SDS011;49455;52.252;9.124;2024-03-29T01:13:35;5.45;;;1.15;;
49153;SDS011;49455;52.252;9.124;2024-03-29T01:18:35;4.97;;;1.20;;
49153;SDS011;49455;52.252;9.124;2024-03-29T01:23:36;3.90;;;1.05;;
49153;SDS011;49455;52.252;9.124;2024-03-29T01:28:36;4.55;;;1.15;;
49153;SDS011;49455;52.252;9.124;2024-03-29T01:33:36;6.20;;;1.40;;
49153;SDS011;49455;52.252;9.124;2024-03-29T01:38:37;4.72;;;0.80;;
49153;SDS011;49455;52.252;9.124;2024-03-29T01:43:37;2.50;;;0.70;;
49153;SDS011;49455;52.252;9.124;2024-03-29T01:48:38;5.47;;;1.00;;
49153;SDS011;49455;52.252;9.124;2024-03-29T01:53:38;4.07;;;0.93;;
49153;SDS011;49455;52.252;9.124;2024-03-29T01:58:39;5.03;;;0.82;;
49153;SDS011;49455;52.252;9.124;2024-03-29T02:03:40;5.25;;;1.23;;
49153;SDS011;49455;52.252;9.124;2024-03-29T07:15:50;4.45;;;1.10;;
49153;SDS011;49455;52.252;9.124;2024-03-29T07:20:51;3.83;;;0.97;;
49153;SDS011;49455;52.252;9.124;2024-03-29T07:25:58;3.45;;;0.90;;
49153;SDS011;49455;52.252;9.124;2024-03-29T07:31:06;3.75;;;1.13;;
49153;SDS011;49455;52.252;9.124;2024-03-29T07:36:07;3.03;;;0.93;;
49153;SDS011;49455;52.252;9.124;2024-03-29T07:41:08;3.45;;;0.93;;
49153;SDS011;49455;52.252;9.124;2024-03-29T07:46:08;2.70;;;0.90;;
49153;SDS011;49455;52.252;9.124;2024-03-29T07:51:08;2.47;;;1.15;;
49153;SDS011;49455;52.252;9.124;2024-03-29T07:56:09;3.58;;;1.20;;
49153;SDS011;49455;52.252;9.124;2024-03-29T08:01:09;4.72;;;1.40;;
49153;SDS011;49455;52.252;9.124;2024-03-29T08:06:10;4.57;;;1.40;;
49153;SDS011;49455;52.252;9.124;2024-03-29T08:11:10;2.83;;;1.30;;
49153;SDS011;49455;52.252;9.124;2024-03-29T08:16:11;3.83;;;1.30;;
49153;SDS011;49455;52.252;9.124;2024-03-29T08:21:12;3.75;;;1.33;;
49153;SDS011;49455;52.252;9.124;2024-03-29T08:26:12;4.93;;;1.20;;
49153;SDS011;49455;52.252;9.124;2024-03-29T08:31:13;5.10;;;1.30;;
49153;SDS011;49455;52.252;9.124;2024-03-29T08:36:13;3.95;;;1.40;;
49153;SDS011;49455;52.252;9.124;2024-03-29T08:41:14;3.20;;;1.20;;
49153;SDS011;49455;52.252;9.124;2024-03-29T08:46:14;2.58;;;1.30;;
49153;SDS011;49455;52.252;9.124;2024-03-29T08:51:15;3.33;;;1.30;;
49153;SDS011;49455;52.252;9.124;2024-03-29T08:56:15;3.92;;;1.80;;
49153;SDS011;49455;52.252;9.124;2024-03-29T09:01:16;4.00;;;1.20;;
49153;SDS011;49455;52.252;9.124;2024-03-29T09:06:16;4.85;;;1.50;;
49153;SDS011;49455;52.252;9.124;2024-03-29T09:11:16;3.85;;;1.20;;
49153;SDS011;49455;52.252;9.124;2024-03-29T09:16:17;3.17;;;1.23;;
49153;SDS011;49455;52.252;9.124;2024-03-29T09:21:17;3.72;;;1.30;;
49153;SDS011;49455;52.252;9.124;2024-03-29T09:26:18;3.78;;;1.20;;
49153;SDS011;49455;52.252;9.124;2024-03-29T09:31:18;3.00;;;1.00;;
49153;SDS011;49455;52.252;9.124;2024-03-29T09:36:22;2.60;;;1.13;;
49153;SDS011;49455;52.252;9.124;2024-03-29T09:41:23;3.30;;;1.13;;
49153;SDS011;49455;52.252;9.124;2024-03-29T09:46:25;3.25;;;1.20;;
49153;SDS011;49455;52.252;9.124;2024-03-29T09:51:29;3.05;;;1.15;;
49153;SDS011;49455;52.252;9.124;2024-03-29T09:56:29;5.30;;;1.90;;
49153;SDS011;49455;52.252;9.124;2024-03-29T10:01:30;5.00;;;1.40;;
49153;SDS011;49455;52.252;9.124;2024-03-29T10:06:31;3.55;;;1.30;;
49153;SDS011;49455;52.252;9.124;2024-03-29T10:11:34;2.95;;;1.20;;
49153;SDS011;49455;52.252;9.124;2024-03-29T10:16:34;3.60;;;1.13;;
49153;SDS011;49455;52.252;9.124;2024-03-29T10:21:35;3.63;;;1.20;;
49153;SDS011;49455;52.252;9.124;2024-03-29T10:26:37;2.65;;;1.23;;
49153;SDS011;49455;52.252;9.124;2024-03-29T10:31:38;4.50;;;1.10;;
49153;SDS011;49455;52.252;9.124;2024-03-29T10:36:38;3.03;;;1.10;;
49153;SDS011;49455;52.252;9.124;2024-03-29T10:41:40;3.65;;;1.48;;
49153;SDS011;49455;52.252;9.124;2024-03-29T10:46:41;2.42;;;1.20;;
49153;SDS011;49455;52.252;9.124;2024-03-29T10:51:41;2.15;;;1.00;;
49153;SDS011;49455;52.252;9.124;2024-03-29T10:56:42;2.47;;;0.95;;
49153;SDS011;49455;52.252;9.124;2024-03-29T11:01:49;3.97;;;1.52;;
49153;SDS011;49455;52.252;9.124;2024-03-29T11:06:55;3.75;;;1.63;;
49153;SDS011;49455;52.252;9.124;2024-03-29T11:11:58;2.88;;;1.08;;
49153;SDS011;49455;52.252;9.124;2024-03-29T11:17:02;2.85;;;1.23;;
49153;SDS011;49455;52.252;9.124;2024-03-29T11:22:04;3.20;;;1.00;;
49153;SDS011;49455;52.252;9.124;2024-03-29T11:27:11;2.65;;;1.00;;
49153;SDS011;49455;52.252;9.124;2024-03-29T11:32:14;3.03;;;1.05;;
49153;SDS011;49455;52.252;9.124;2024-03-29T11:37:14;2.45;;;1.10;;
49153;SDS011;49455;52.252;9.124;2024-03-29T11:42:15;1.85;;;1.08;;
49153;SDS011;49455;52.252;9.124;2024-03-29T11:47:15;2.30;;;1.20;;
49153;SDS011;49455;52.252;9.124;2024-03-29T11:52:18;2.38;;;1.10;;
49153;SDS011;49455;52.252;9.124;2024-03-29T11:57:18;2.33;;;1.10;;
49153;SDS011;49455;52.252;9.124;2024-03-29T12:02:19;2.42;;;1.00;;
49153;SDS011;49455;52.252;9.124;2024-03-29T12:07:19;1.42;;;0.82;;
49153;SDS011;49455;52.252;9.124;2024-03-29T12:12:20;2.25;;;1.00;;
49153;SDS011;49455;52.252;9.124;2024-03-29T12:17:20;2.83;;;1.00;;
49153;SDS011;49455;52.252;9.124;2024-03-29T12:22:21;2.33;;;1.00;;
49153;SDS011;49455;52.252;9.124;2024-03-29T12:27:21;1.90;;;1.10;;
49153;SDS011;49455;52.252;9.124;2024-03-29T12:32:22;2.33;;;1.17;;
49153;SDS011;49455;52.252;9.124;2024-03-29T12:37:22;3.45;;;1.35;;
49153;SDS011;49455;52.252;9.124;2024-03-29T12:42:23;2.92;;;1.38;;
49153;SDS011;49455;52.252;9.124;2024-03-29T12:47:23;3.22;;;1.30;;
49153;SDS011;49455;52.252;9.124;2024-03-29T12:52:24;2.42;;;1.40;;
49153;SDS011;49455;52.252;9.124;2024-03-29T12:57:24;2.35;;;1.05;;
49153;SDS011;49455;52.252;9.124;2024-03-29T13:02:25;2.33;;;1.10;;
49153;SDS011;49455;52.252;9.124;2024-03-29T13:07:25;3.42;;;1.27;;
49153;SDS011;49455;52.252;9.124;2024-03-29T13:12:25;3.28;;;1.40;;
49153;SDS011;49455;52.252;9.124;2024-03-29T13:17:26;2.72;;;1.30;;
49153;SDS011;49455;52.252;9.124;2024-03-29T13:22:26;4.88;;;1.40;;
49153;SDS011;49455;52.252;9.124;2024-03-29T13:27:27;2.75;;;1.33;;
49153;SDS011;49455;52.252;9.124;2024-03-29T13:32:27;3.10;;;1.10;;
49153;SDS011;49455;52.252;9.124;2024-03-29T13:37:28;2.90;;;1.10;;
49153;SDS011;49455;52.252;9.124;2024-03-29T13:42:31;1.90;;;1.10;;
49153;SDS011;49455;52.252;9.124;2024-03-29T13:47:39;3.25;;;1.05;;
49153;SDS011;49455;52.252;9.124;2024-03-29T13:52:41;2.40;;;1.13;;
49153;SDS011;49455;52.252;9.124;2024-03-29T13:57:42;2.63;;;1.30;;
49153;SDS011;49455;52.252;9.124;2024-03-29T14:02:45;2.85;;;1.20;;
49153;SDS011;49455;52.252;9.124;2024-03-29T14:07:46;2.92;;;1.33;;
49153;SDS011;49455;52.252;9.124;2024-03-29T14:12:46;2.55;;;1.27;;
49153;SDS011;49455;52.252;9.124;2024-03-29T14:17:46;3.28;;;1.20;;
49153;SDS011;49455;52.252;9.124;2024-03-29T14:22:47;2.88;;;1.20;;
49153;SDS011;49455;52.252;9.124;2024-03-29T14:27:48;3.92;;;1.25;;
49153;SDS011;49455;52.252;9.124;2024-03-29T14:32:50;1.88;;;0.90;;
49153;SDS011;49455;52.252;9.124;2024-03-29T14:37:51;1.88;;;1.10;;
49153;SDS011;49455;52.252;9.124;2024-03-29T14:42:52;3.28;;;1.00;;
49153;SDS011;49455;52.252;9.124;2024-03-29T14:47:52;3.15;;;1.02;;
49153;SDS011;49455;52.252;9.124;2024-03-29T14:52:53;2.05;;;0.80;;
49153;SDS011;49455;52.252;9.124;2024-03-29T14:57:53;1.88;;;1.00;;
49153;SDS011;49455;52.252;9.124;2024-03-29T15:02:54;2.67;;;1.10;;
49153;SDS011;49455;52.252;9.124;2024-03-29T15:07:54;1.58;;;0.95;;
49153;SDS011;49455;52.252;9.124;2024-03-29T15:12:55;3.08;;;1.30;;
49153;SDS011;49455;52.252;9.124;2024-03-29T15:17:55;2.67;;;1.30;;
49153;SDS011;49455;52.252;9.124;2024-03-29T15:22:55;2.50;;;1.00;;
49153;SDS011;49455;52.252;9.124;2024-03-29T15:27:56;2.88;;;1.45;;
49153;SDS011;49455;52.252;9.124;2024-03-29T15:32:56;1.63;;;1.08;;
49153;SDS011;49455;52.252;9.124;2024-03-29T15:37:57;2.92;;;1.50;;
49153;SDS011;49455;52.252;9.124;2024-03-29T15:42:57;3.47;;;1.60;;
49153;SDS011;49455;52.252;9.124;2024-03-29T15:47:58;4.32;;;1.50;;
49153;SDS011;49455;52.252;9.124;2024-03-29T15:52:59;4.22;;;1.70;;
49153;SDS011;49455;52.252;9.124;2024-03-29T15:57:59;2.30;;;1.20;;
49153;SDS011;49455;52.252;9.124;2024-03-29T16:03:00;2.55;;;1.30;;
49153;SDS011;49455;52.252;9.124;2024-03-29T16:08:00;3.47;;;1.20;;
49153;SDS011;49455;52.252;9.124;2024-03-29T16:13:01;3.30;;;1.38;;
49153;SDS011;49455;52.252;9.124;2024-03-29T16:18:01;2.88;;;1.20;;
49153;SDS011;49455;52.252;9.124;2024-03-29T16:23:01;2.92;;;1.27;;
49153;SDS011;49455;52.252;9.124;2024-03-29T16:28:02;2.60;;;1.10;;
49153;SDS011;49455;52.252;9.124;2024-03-29T16:33:03;3.72;;;1.50;;
49153;SDS011;49455;52.252;9.124;2024-03-29T16:38:04;3.83;;;1.42;;
49153;SDS011;49455;52.252;9.124;2024-03-29T16:43:05;3.40;;;1.98;;
49153;SDS011;49455;52.252;9.124;2024-03-29T16:48:07;2.03;;;1.10;;
49153;SDS011;49455;52.252;9.124;2024-03-29T16:53:08;2.75;;;1.20;;
49153;SDS011;49455;52.252;9.124;2024-03-29T16:58:08;2.50;;;1.20;;
49153;SDS011;49455;52.252;9.124;2024-03-29T17:03:09;1.90;;;1.13;;
49153;SDS011;49455;52.252;9.124;2024-03-29T17:08:09;3.30;;;1.73;;
49153;SDS011;49455;52.252;9.124;2024-03-29T17:13:09;5.18;;;1.88;;
49153;SDS011;49455;52.252;9.124;2024-03-29T17:18:10;3.15;;;1.33;;
49153;SDS011;49455;52.252;9.124;2024-03-29T17:23:10;4.10;;;1.38;;
49153;SDS011;49455;52.252;9.124;2024-03-29T17:28:11;2.65;;;1.33;;
49153;SDS011;49455;52.252;9.124;2024-03-29T17:33:11;2.85;;;1.30;;
49153;SDS011;49455;52.252;9.124;2024-03-29T17:38:12;3.33;;;1.20;;
49153;SDS011;49455;52.252;9.124;2024-03-29T17:43:12;3.60;;;1.20;;
49153;SDS011;49455;52.252;9.124;2024-03-29T17:48:12;9.65;;;4.40;;
49153;SDS011;49455;52.252;9.124;2024-03-29T17:53:13;4.15;;;1.70;;
49153;SDS011;49455;52.252;9.124;2024-03-29T17:58:13;4.32;;;1.60;;
49153;SDS011;49455;52.252;9.124;2024-03-29T18:03:14;3.22;;;1.80;;
49153;SDS011;49455;52.252;9.124;2024-03-29T18:08:14;3.35;;;1.60;;
49153;SDS011;49455;52.252;9.124;2024-03-29T18:13:15;3.22;;;1.67;;
49153;SDS011;49455;52.252;9.124;2024-03-29T18:18:15;3.58;;;1.85;;
49153;SDS011;49455;52.252;9.124;2024-03-29T18:23:16;5.30;;;1.92;;
49153;SDS011;49455;52.252;9.124;2024-03-29T18:28:16;5.95;;;2.97;;
49153;SDS011;49455;52.252;9.124;2024-03-29T18:33:17;4.88;;;2.53;;
49153;SDS011;49455;52.252;9.124;2024-03-29T18:38:18;7.55;;;4.07;;
49153;SDS011;49455;52.252;9.124;2024-03-29T18:43:18;4.85;;;1.70;;
49153;SDS011;49455;52.252;9.124;2024-03-29T18:48:18;5.65;;;3.47;;
49153;SDS011;49455;52.252;9.124;2024-03-29T18:53:19;4.28;;;2.40;;
49153;SDS011;49455;52.252;9.124;2024-03-29T18:58:19;8.95;;;3.55;;
49153;SDS011;49455;52.252;9.124;2024-03-29T19:03:22;4.00;;;2.00;;
49153;SDS011;49455;52.252;9.124;2024-03-29T19:08:23;4.05;;;2.40;;
49153;SDS011;49455;52.252;9.124;2024-03-29T19:13:23;2.97;;;1.80;;
49153;SDS011;49455;52.252;9.124;2024-03-29T19:18:24;3.00;;;1.83;;
49153;SDS011;49455;52.252;9.124;2024-03-29T19:23:24;3.35;;;1.90;;
49153;SDS011;49455;52.252;9.124;2024-03-29T19:28:25;4.28;;;2.00;;
49153;SDS011;49455;52.252;9.124;2024-03-29T19:33:25;4.45;;;2.17;;
49153;SDS011;49455;52.252;9.124;2024-03-29T19:38:26;3.25;;;1.70;;
49153;SDS011;49455;52.252;9.124;2024-03-29T19:43:26;6.30;;;2.38;;
49153;SDS011;49455;52.252;9.124;2024-03-29T19:48:27;3.47;;;1.98;;
49153;SDS011;49455;52.252;9.124;2024-03-29T19:53:27;6.82;;;2.35;;
49153;SDS011;49455;52.252;9.124;2024-03-29T19:58:28;4.45;;;1.95;;
49153;SDS011;49455;52.252;9.124;2024-03-29T20:03:28;8.00;;;3.15;;
49153;SDS011;49455;52.252;9.124;2024-03-29T20:08:28;9.40;;;3.30;;
49153;SDS011;49455;52.252;9.124;2024-03-29T20:13:29;3.97;;;2.10;;
49153;SDS011;49455;52.252;9.124;2024-03-29T20:18:29;5.05;;;2.10;;
49153;SDS011;49455;52.252;9.124;2024-03-29T20:23:30;3.70;;;2.35;;
49153;SDS011;49455;52.252;9.124;2024-03-29T20:28:30;4.45;;;2.20;;
49153;SDS011;49455;52.252;9.124;2024-03-29T20:33:31;4.03;;;2.22;;
49153;SDS011;49455;52.252;9.124;2024-03-29T20:38:34;5.43;;;2.65;;
49153;SDS011;49455;52.252;9.124;2024-03-29T20:43:38;4.47;;;2.50;;
49153;SDS011;49455;52.252;9.124;2024-03-29T20:48:38;3.83;;;2.35;;
49153;SDS011;49455;52.252;9.124;2024-03-29T20:53:39;7.30;;;2.97;;
49153;SDS011;49455;52.252;9.124;2024-03-29T20:58:39;4.18;;;2.15;;
49153;SDS011;49455;52.252;9.124;2024-03-29T21:03:39;4.53;;;2.80;;
49153;SDS011;49455;52.252;9.124;2024-03-29T21:08:40;3.63;;;2.00;;
49153;SDS011;49455;52.252;9.124;2024-03-29T21:13:40;2.85;;;1.83;;
49153;SDS011;49455;52.252;9.124;2024-03-29T21:18:43;3.33;;;1.92;;
49153;SDS011;49455;52.252;9.124;2024-03-29T21:23:44;3.38;;;2.20;;
49153;SDS011;49455;52.252;9.124;2024-03-29T21:28:44;3.92;;;2.30;;
49153;SDS011;49455;52.252;9.124;2024-03-29T21:33:45;4.07;;;2.53;;
49153;SDS011;49455;52.252;9.124;2024-03-29T21:38:46;5.32;;;3.08;;
49153;SDS011;49455;52.252;9.124;2024-03-29T21:43:47;5.13;;;2.97;;
49153;SDS011;49455;52.252;9.124;2024-03-29T21:48:47;4.35;;;2.90;;
49153;SDS011;49455;52.252;9.124;2024-03-29T21:53:48;5.10;;;3.20;;
49153;SDS011;49455;52.252;9.124;2024-03-29T21:58:49;4.97;;;3.22;;
49153;SDS011;49455;52.252;9.124;2024-03-29T22:03:49;4.30;;;3.00;;
49153;SDS011;49455;52.252;9.124;2024-03-29T22:08:50;5.60;;;3.85;;
49153;SDS011;49455;52.252;9.124;2024-03-29T22:13:50;4.93;;;3.17;;
49153;SDS011;49455;52.252;9.124;2024-03-29T22:18:51;4.88;;;3.38;;
49153;SDS011;49455;52.252;9.124;2024-03-29T22:23:51;4.55;;;3.25;;
49153;SDS011;49455;52.252;9.124;2024-03-29T22:28:55;4.95;;;3.00;;
49153;SDS011;49455;52.252;9.124;2024-03-29T22:33:55;5.13;;;3.20;;
49153;SDS011;49455;52.252;9.124;2024-03-29T22:38:55;4.88;;;3.28;;
49153;SDS011;49455;52.252;9.124;2024-03-29T22:43:56;4.93;;;2.90;;
49153;SDS011;49455;52.252;9.124;2024-03-29T22:48:57;3.97;;;2.60;;
49153;SDS011;49455;52.252;9.124;2024-03-29T22:53:57;5.65;;;2.97;;
49153;SDS011;49455;52.252;9.124;2024-03-29T22:58:57;4.38;;;2.67;;
49153;SDS011;49455;52.252;9.124;2024-03-29T23:03:58;4.10;;;2.60;;
49153;SDS011;49455;52.252;9.124;2024-03-29T23:08:58;4.18;;;2.47;;
49153;SDS011;49455;52.252;9.124;2024-03-29T23:13:59;4.25;;;2.60;;
49153;SDS011;49455;52.252;9.124;2024-03-29T23:18:59;4.22;;;2.47;;
49153;SDS011;49455;52.252;9.124;2024-03-29T23:24:00;4.68;;;2.42;;
49153;SDS011;49455;52.252;9.124;2024-03-29T23:29:01;3.63;;;2.10;;
49153;SDS011;49455;52.252;9.124;2024-03-29T23:34:02;4.07;;;2.28;;
49153;SDS011;49455;52.252;9.124;2024-03-29T23:39:02;4.13;;;2.40;;
49153;SDS011;49455;52.252;9.124;2024-03-29T23:44:03;3.92;;;2.50;;
49153;SDS011;49455;52.252;9.124;2024-03-29T23:49:03;4.28;;;2.30;;
49153;SDS011;49455;52.252;9.124;2024-03-29T23:54:03;4.30;;;2.30;;
49153;SDS011;49455;52.252;9.124;2024-03-29T23:59:04;4.82;;;2.40;;
